Time;durP1;ratioP1;P1;durP2;ratioP2;P2;SDS_P1;SDS_P2;PMS_P1;PMS_P2;Temp;Humidity;BMP_temperature;BMP_pressure;BME280_temperature;BME280_humidity;BME280_pressure;Samples;Min_cycle;Max_cycle;Signal;HPM_P1;HPM_P2
2024/03/13 00:00:34;;;;;;;;;;;;;;;9.78;79.75;95715.19;7394612;19;1106;-72
2024/03/13 00:03:03;;;;;;;;;;;;;;;9.76;80.13;95708.38;7394108;19;1057;-70
2024/03/13 00:05:31;;;;;;;;;;;;;;;9.74;81.22;95713.66;7394427;19;1033;-71
2024/03/13 00:08:01;;;;;;;;;;;;;;;9.78;81.05;95712.59;7394306;19;1822;-70
2024/03/13 00:10:29;;;;;;;;;;;;;;;9.79;80.96;95701.25;7393035;19;1081;-68
2024/03/13 00:13:01;;;;;;;;;;;;;;;9.80;81.21;95702.06;7393776;19;1147;-68
2024/03/13 00:15:29;;;;;;;;;;;;;;;9.81;81.59;95704.59;7393697;19;1082;-72
2024/03/13 00:17:57;;;;;;;;;;;;;;;9.84;81.10;95707.06;7393684;19;1127;-66
2024/03/13 00:20:30;;;;;;;;;;;;;;;9.83;81.14;95701.94;7393842;19;859;-70
2024/03/13 00:22:58;;;;;;;;;;;;;;;9.84;80.82;95709.69;7391669;19;1858;-68
2024/03/13 00:25:27;;;;;;;;;;;;;;;9.79;80.99;95706.47;7393405;19;1072;-69
2024/03/13 00:27:55;;;;;;;;;;;;;;;9.80;80.76;95702.94;7393424;19;1032;-65
2024/03/13 00:30:26;;;;;;;;;;;;;;;9.79;80.82;95703.84;7394352;19;1829;-72
2024/03/13 00:32:55;;;;;;;;;;;;;;;9.79;81.08;95701.25;7400733;19;1052;-67
2024/03/13 00:35:24;;;;;;;;;;;;;;;9.80;81.11;95697.69;7401040;19;1896;-64
2024/03/13 00:37:52;;;;;;;;;;;;;;;9.82;80.69;95692.41;7400757;19;1025;-69
2024/03/13 00:40:20;;;;;;;;;;;;;;;9.86;80.54;95693.94;7401004;19;1814;-65
2024/03/13 00:42:49;;;;;;;;;;;;;;;9.83;80.81;95692.34;7398892;19;1829;-67
2024/03/13 00:45:17;;;;;;;;;;;;;;;9.83;80.98;95696.69;7400781;19;1911;-70
2024/03/13 00:47:48;;;;;;;;;;;;;;;9.85;80.66;95693.09;7400572;19;1893;-70
2024/03/13 00:50:18;;;;;;;;;;;;;;;9.85;80.60;95689.66;7400222;19;1096;-70
2024/03/13 00:52:46;;;;;;;;;;;;;;;9.85;80.83;95689.66;7400160;19;1835;-66
2024/03/13 00:55:15;;;;;;;;;;;;;;;9.88;80.68;95688.66;7400517;19;1024;-70
2024/03/13 00:57:46;;;;;;;;;;;;;;;9.91;80.39;95688.50;7400313;19;1812;-64
2024/03/13 01:00:18;;;;;;;;;;;;;;;9.90;80.40;95682.41;7400369;19;1053;-65
2024/03/13 01:02:49;;;;;;;;;;;;;;;9.91;80.30;95684.13;7398227;19;2149;-64
2024/03/13 01:05:18;;;;;;;;;;;;;;;9.93;80.29;95677.03;7399674;19;1139;-70
2024/03/13 01:07:50;;;;;;;;;;;;;;;9.95;80.14;95674.34;7399664;19;1017;-65
2024/03/13 01:10:19;;;;;;;;;;;;;;;9.93;80.38;95678.84;7398608;19;1138;-70
2024/03/13 01:12:49;;;;;;;;;;;;;;;9.92;80.54;95674.50;7399443;19;985;-66
2024/03/13 01:15:17;;;;;;;;;;;;;;;9.93;80.29;95671.00;7399417;19;1863;-67
2024/03/13 01:17:45;;;;;;;;;;;;;;;9.91;79.97;95676.28;7399598;19;1801;-73
2024/03/13 01:20:18;;;;;;;;;;;;;;;9.91;79.85;95676.28;7399535;19;1796;-73
2024/03/13 01:22:48;;;;;;;;;;;;;;;9.91;79.26;95665.00;7397377;19;1838;-70
2024/03/13 01:25:16;;;;;;;;;;;;;;;9.89;79.48;95677.25;7399041;19;1013;-64
2024/03/13 01:27:46;;;;;;;;;;;;;;;9.86;79.39;95678.28;7399342;19;1900;-67
2024/03/13 01:30:14;;;;;;;;;;;;;;;9.81;79.02;95678.50;7398951;19;907;-69
2024/03/13 01:32:43;;;;;;;;;;;;;;;9.78;79.25;95672.59;7399637;19;1670;-67
2024/03/13 01:35:12;;;;;;;;;;;;;;;9.71;79.29;95672.03;7398780;19;1033;-69
2024/03/13 01:37:56;;;;;;;;;;;;;;;9.68;79.29;95672.16;7399225;19;968;-70
2024/03/13 01:40:28;;;;;;;;;;;;;;;9.63;79.75;95667.16;7398585;19;939;-70
2024/03/13 01:57:02;;;;;;;;;;;;;;;9.60;79.46;95670.78;7398564;19;829;-69
2024/03/13 01:59:35;;;;;;;;;;;;;;;9.59;79.21;95668.25;7398432;19;1019;-71
2024/03/13 02:04:44;;;;;;;;;;;;;;;9.56;78.82;95671.00;7397683;19;916;-73
2024/03/13 02:07:13;;;;;;;;;;;;;;;9.50;78.57;95671.28;7398258;19;1031;-67
2024/03/13 02:09:44;;;;;;;;;;;;;;;9.48;79.02;95664.38;7397269;19;1084;-69
2024/03/13 02:12:13;;;;;;;;;;;;;;;9.44;78.78;95659.38;7397531;19;1025;-65
2024/03/13 02:14:42;;;;;;;;;;;;;;;9.45;78.74;95661.91;7397489;19;1132;-67
2024/03/13 02:17:11;;;;;;;;;;;;;;;9.44;78.87;95662.84;7397930;19;1035;-72
2024/03/13 02:19:40;;;;;;;;;;;;;;;9.46;78.31;95662.78;7397744;19;1916;-68
2024/03/13 02:22:09;;;;;;;;;;;;;;;9.42;78.41;95663.84;7396790;19;1849;-73
2024/03/13 02:24:40;;;;;;;;;;;;;;;9.34;78.72;95659.81;7397137;19;1354;-67
2024/03/13 02:27:11;;;;;;;;;;;;;;;9.26;78.50;95659.34;7397021;19;1012;-66
2024/03/13 02:29:42;;;;;;;;;;;;;;;9.21;79.20;95661.28;7397529;19;948;-69
2024/03/13 02:32:11;;;;;;;;;;;;;;;9.18;79.03;95659.69;7397420;19;1030;-69
2024/03/13 02:34:43;;;;;;;;;;;;;;;9.18;78.89;95654.47;7397350;19;1008;-73
2024/03/13 02:37:11;;;;;;;;;;;;;;;9.15;78.72;95656.38;7396721;19;1045;-70
2024/03/13 02:39:43;;;;;;;;;;;;;;;9.15;78.54;95657.22;7397105;19;1020;-70
2024/03/13 02:42:12;;;;;;;;;;;;;;;9.14;78.28;95657.28;7395904;19;1849;-71
2024/03/13 02:44:44;;;;;;;;;;;;;;;9.10;77.95;95659.22;7397067;19;1021;-73
2024/03/13 02:47:12;;;;;;;;;;;;;;;9.04;78.20;95668.16;7396390;19;1017;-67
2024/03/13 02:49:43;;;;;;;;;;;;;;;8.99;78.34;95659.69;7396279;19;1134;-69
2024/03/13 02:52:11;;;;;;;;;;;;;;;8.98;78.09;95660.63;7396654;19;1059;-69
2024/03/13 02:54:39;;;;;;;;;;;;;;;8.87;78.51;95658.47;7395381;19;1063;-68
2024/03/13 02:57:11;;;;;;;;;;;;;;;8.85;78.80;95655.09;7396506;19;871;-67
2024/03/13 02:59:40;;;;;;;;;;;;;;;8.85;79.09;95658.56;7396179;19;1064;-68
2024/03/13 03:02:09;;;;;;;;;;;;;;;8.81;78.79;95661.38;7395948;19;1845;-68
2024/03/13 03:04:37;;;;;;;;;;;;;;;8.71;79.34;95658.34;7396047;19;1022;-64
2024/03/13 03:07:06;;;;;;;;;;;;;;;8.72;79.74;95658.25;7396285;19;977;-68
2024/03/13 03:09:34;;;;;;;;;;;;;;;8.77;79.29;95662.41;7396045;19;1119;-72
2024/03/13 03:12:08;;;;;;;;;;;;;;;8.72;79.38;95662.63;7395931;19;1818;-72
2024/03/13 03:14:39;;;;;;;;;;;;;;;8.75;79.79;95661.63;7395694;19;1128;-64
2024/03/13 03:17:08;;;;;;;;;;;;;;;8.76;80.04;95664.16;7396120;19;1028;-69
2024/03/13 03:19:37;;;;;;;;;;;;;;;8.77;80.36;95667.63;7395926;19;949;-67
2024/03/13 03:22:05;;;;;;;;;;;;;;;8.79;80.24;95664.03;7395286;19;1833;-71
2024/03/13 03:24:34;;;;;;;;;;;;;;;8.80;80.79;95668.38;7395671;19;1044;-67
2024/03/13 03:27:02;;;;;;;;;;;;;;;8.76;80.79;95674.59;7395109;19;1127;-70
2024/03/13 03:29:31;;;;;;;;;;;;;;;8.78;81.31;95666.72;7393347;19;1518;-69
2024/03/13 03:32:02;;;;;;;;;;;;;;;8.82;81.08;95668.28;7395349;19;1917;-71
2024/03/13 03:34:30;;;;;;;;;;;;;;;8.75;81.37;95669.47;7394951;19;1360;-69
2024/03/13 03:37:01;;;;;;;;;;;;;;;8.71;82.48;95663.56;7395308;19;955;-70
2024/03/13 03:39:29;;;;;;;;;;;;;;;8.73;82.88;95661.69;7394795;19;1088;-71
2024/03/13 03:41:59;;;;;;;;;;;;;;;8.75;83.65;95670.31;7394449;19;1841;-68
2024/03/13 03:44:29;;;;;;;;;;;;;;;8.82;83.18;95673.50;7395180;19;980;-69
2024/03/13 03:46:58;;;;;;;;;;;;;;;8.84;83.45;95663.84;7395028;19;1075;-68
2024/03/13 03:49:29;;;;;;;;;;;;;;;8.88;83.35;95670.59;7394944;19;1070;-66
2024/03/13 03:51:58;;;;;;;;;;;;;;;8.90;82.81;95668.78;7394425;19;1127;-70
2024/03/13 03:54:26;;;;;;;;;;;;;;;8.86;82.89;95662.03;7394695;19;1808;-69
2024/03/13 03:56:55;;;;;;;;;;;;;;;8.90;83.06;95662.72;7394290;19;1041;-70
2024/03/13 03:59:24;;;;;;;;;;;;;;;8.95;82.78;95665.97;7394549;19;1884;-67
2024/03/13 04:01:52;;;;;;;;;;;;;;;9.01;82.65;95668.31;7394080;19;1861;-72
2024/03/13 04:04:21;;;;;;;;;;;;;;;9.05;82.21;95662.03;7394488;19;1734;-70
2024/03/13 04:06:52;;;;;;;;;;;;;;;9.06;82.23;95668.09;7399088;19;1120;-71
2024/03/13 04:09:20;;;;;;;;;;;;;;;9.07;82.01;95673.25;7401611;19;1028;-69
2024/03/13 04:11:51;;;;;;;;;;;;;;;9.10;81.80;95669.63;7397311;19;1114;-70
2024/03/13 04:14:21;;;;;;;;;;;;;;;9.13;81.82;95666.03;7399055;19;1051;-70
2024/03/13 04:16:50;;;;;;;;;;;;;;;9.12;81.26;95673.00;7398996;19;1040;-66
2024/03/13 04:19:18;;;;;;;;;;;;;;;9.16;81.48;95671.97;7398986;19;2014;-71
2024/03/13 04:21:47;;;;;;;;;;;;;;;9.13;81.60;95679.09;7398424;19;1114;-67
2024/03/13 04:24:18;;;;;;;;;;;;;;;9.12;81.56;95672.19;7396493;19;1853;-72
2024/03/13 04:26:47;;;;;;;;;;;;;;;9.08;81.46;95667.09;7398783;19;953;-70
2024/03/13 04:29:15;;;;;;;;;;;;;;;9.03;81.80;95674.28;7398264;19;1013;-70
2024/03/13 04:31:45;;;;;;;;;;;;;;;8.95;82.36;95677.25;7398384;19;1807;-63
2024/03/13 04:34:13;;;;;;;;;;;;;;;8.98;83.11;95677.09;7398060;19;1007;-67
2024/03/13 04:36:42;;;;;;;;;;;;;;;9.03;83.19;95676.88;7398260;19;1821;-70
2024/03/13 04:39:11;;;;;;;;;;;;;;;9.06;82.95;95678.53;7397901;19;1025;-73
2024/03/13 04:41:42;;;;;;;;;;;;;;;9.08;82.60;95674.06;7398107;19;930;-66
2024/03/13 04:44:12;;;;;;;;;;;;;;;9.08;81.51;95674.06;7395847;19;1829;-70
2024/03/13 04:46:43;;;;;;;;;;;;;;;9.10;81.66;95677.47;7397766;19;1029;-67
2024/03/13 04:49:12;;;;;;;;;;;;;;;9.16;81.76;95669.38;7398112;19;965;-73
2024/03/13 04:51:41;;;;;;;;;;;;;;;9.15;81.95;95661.59;7397552;19;1188;-66
2024/03/13 04:54:09;;;;;;;;;;;;;;;9.07;81.67;95667.16;7398372;19;1793;-67
2024/03/13 04:56:38;;;;;;;;;;;;;;;9.17;81.85;95675.41;7397946;19;1046;-69
2024/03/13 04:59:09;;;;;;;;;;;;;;;9.17;81.71;95683.22;7397849;19;958;-65
2024/03/13 05:01:37;;;;;;;;;;;;;;;9.17;81.81;95683.22;7397812;19;1017;-71
2024/03/13 05:04:06;;;;;;;;;;;;;;;9.19;82.50;95682.28;7395828;19;1908;-68
2024/03/13 05:06:34;;;;;;;;;;;;;;;9.19;81.85;95679.66;7397521;19;1834;-67
2024/03/13 05:09:03;;;;;;;;;;;;;;;9.06;82.11;95676.75;7397053;19;1182;-74
2024/03/13 05:11:32;;;;;;;;;;;;;;;9.13;82.10;95681.69;7245309;19;2967661;-66
2024/03/13 05:14:01;;;;;;;;;;;;;;;9.12;82.62;95682.63;7399483;19;1052;-67
2024/03/13 05:16:33;;;;;;;;;;;;;;;9.20;82.33;95686.56;7398506;19;1240;-73
2024/03/13 05:19:01;;;;;;;;;;;;;;;9.17;81.99;95684.09;7399843;19;1027;-69
2024/03/13 05:21:30;;;;;;;;;;;;;;;9.25;81.19;95688.09;7399747;19;1028;-68
2024/03/13 05:23:59;;;;;;;;;;;;;;;9.23;81.04;95677.75;7397456;19;1857;-68
2024/03/13 05:26:27;;;;;;;;;;;;;;;9.31;81.48;95680.00;7399601;19;1061;-73
2024/03/13 05:28:56;;;;;;;;;;;;;;;9.33;79.87;95678.19;7399568;19;1035;-70
2024/03/13 05:31:25;;;;;;;;;;;;;;;9.38;79.56;95684.00;7399462;19;961;-67
2024/03/13 05:33:57;;;;;;;;;;;;;;;9.40;79.50;95681.31;7398970;19;1041;-70
2024/03/13 05:36:25;;;;;;;;;;;;;;;9.30;79.84;95684.34;7398759;19;1092;-72
2024/03/13 05:38:55;;;;;;;;;;;;;;;9.39;79.92;95687.47;7399193;19;1818;-69
2024/03/13 05:41:24;;;;;;;;;;;;;;;9.45;79.66;95689.81;7399226;19;1068;-72
2024/03/13 05:43:52;;;;;;;;;;;;;;;9.49;78.21;95696.56;7397533;19;1842;-70
2024/03/13 05:46:22;;;;;;;;;;;;;;;9.48;78.93;95700.94;7398489;19;1033;-71
2024/03/13 05:48:51;;;;;;;;;;;;;;;9.52;78.27;95692.94;7398833;19;1039;-70
2024/03/13 05:51:22;;;;;;;;;;;;;;;9.48;77.46;95702.69;7398586;19;1936;-72
2024/03/13 05:53:51;;;;;;;;;;;;;;;9.62;76.89;95707.25;7398238;19;1052;-69
2024/03/13 05:56:21;;;;;;;;;;;;;;;9.53;76.62;95702.47;7398977;19;1939;-67
2024/03/13 05:58:49;;;;;;;;;;;;;;;9.59;77.27;95710.00;7398595;19;1040;-67
2024/03/13 06:01:22;;;;;;;;;;;;;;;9.72;77.30;95715.50;7398255;19;1880;-70
2024/03/13 06:03:53;;;;;;;;;;;;;;;9.82;76.29;95716.75;7397113;19;1845;-66
2024/03/13 06:06:24;;;;;;;;;;;;;;;9.86;75.81;95707.84;7398209;19;1055;-70
2024/03/13 06:08:53;;;;;;;;;;;;;;;9.95;76.00;95709.19;7397877;19;1115;-74
2024/03/13 06:11:22;;;;;;;;;;;;;;;10.01;76.11;95715.88;7396196;19;1267;-67
2024/03/13 06:13:50;;;;;;;;;;;;;;;10.07;76.10;95717.31;7398061;19;949;-69
2024/03/13 06:16:19;;;;;;;;;;;;;;;10.06;76.83;95719.06;7397494;19;1127;-69
2024/03/13 06:18:48;;;;;;;;;;;;;;;10.17;75.41;95713.34;7397802;19;1825;-70
2024/03/13 06:21:17;;;;;;;;;;;;;;;10.29;74.79;95713.66;7397294;19;1084;-67
2024/03/13 06:23:53;;;;;;;;;;;;;;;10.41;72.94;95720.88;7396237;19;1848;-70
2024/03/13 06:26:21;;;;;;;;;;;;;;;10.56;75.77;95723.66;7397131;19;1025;-68
2024/03/13 06:31:32;;;;;;;;;;;;;;;10.74;72.31;95724.47;7397169;19;905;-73
2024/03/13 06:34:01;;;;;;;;;;;;;;;10.81;71.28;95723.22;7397565;19;1025;-65
2024/03/13 06:36:29;;;;;;;;;;;;;;;10.94;73.80;95718.22;7396895;19;1013;-70
2024/03/13 06:39:00;;;;;;;;;;;;;;;11.05;74.11;95724.66;7397131;19;1065;-72
2024/03/13 06:41:29;;;;;;;;;;;;;;;11.15;74.49;95728.47;7396635;19;1033;-69
2024/03/13 06:43:58;;;;;;;;;;;;;;;11.18;74.92;95723.09;7395581;19;1834;-72
2024/03/13 06:46:28;;;;;;;;;;;;;;;11.31;74.76;95725.88;7396793;19;1887;-68
2024/03/13 06:48:56;;;;;;;;;;;;;;;11.41;73.11;95734.06;7396405;19;1197;-66
2024/03/13 06:51:25;;;;;;;;;;;;;;;11.37;70.41;95737.78;7396225;19;1120;-67
2024/03/13 06:53:53;;;;;;;;;;;;;;;11.22;68.00;95737.69;7396238;19;1119;-68
2024/03/13 06:56:25;;;;;;;;;;;;;;;11.19;67.20;95745.72;7396416;19;1774;-69
2024/03/13 06:58:55;;;;;;;;;;;;;;;11.19;65.21;95748.31;7396073;19;1072;-65
2024/03/13 07:01:23;;;;;;;;;;;;;;;11.24;65.57;95753.31;7396476;19;1053;-70
2024/03/13 07:03:52;;;;;;;;;;;;;;;11.49;65.70;95752.84;7395127;19;1838;-68
2024/03/13 07:06:20;;;;;;;;;;;;;;;11.96;64.56;95752.94;7396379;19;1000;-67
2024/03/13 07:08:49;;;;;;;;;;;;;;;12.36;61.77;95757.72;7396678;19;1654;-70
2024/03/13 07:11:17;;;;;;;;;;;;;;;12.83;60.63;95759.41;7394152;19;1115;-67
2024/03/13 07:13:48;;;;;;;;;;;;;;;13.35;59.08;95762.44;7395705;19;1069;-70
2024/03/13 07:16:17;;;;;;;;;;;;;;;13.37;58.54;95755.31;7396094;19;1061;-67
2024/03/13 07:18:46;;;;;;;;;;;;;;;13.49;57.42;95759.81;7395943;19;1085;-71
2024/03/13 07:21:15;;;;;;;;;;;;;;;13.80;57.11;95754.44;7395412;19;1080;-70
2024/03/13 07:23:46;;;;;;;;;;;;;;;13.60;54.75;95758.28;7395243;19;1841;-68
2024/03/13 07:26:14;;;;;;;;;;;;;;;13.83;56.38;95761.25;7395735;19;1025;-67
2024/03/13 07:28:42;;;;;;;;;;;;;;;13.77;55.11;95754.63;7395639;19;1042;-73
2024/03/13 07:31:13;;;;;;;;;;;;;;;14.11;53.74;95762.13;7395387;19;1895;-72
2024/03/13 07:33:42;;;;;;;;;;;;;;;14.49;53.56;95765.81;7395545;19;1040;-70
2024/03/13 07:36:10;;;;;;;;;;;;;;;14.74;55.61;95757.13;7395461;19;1008;-67
2024/03/13 07:38:39;;;;;;;;;;;;;;;15.14;54.73;95761.50;7395447;19;1121;-70
2024/03/13 07:41:12;;;;;;;;;;;;;;;15.31;53.01;95761.25;7394625;19;1136;-68
2024/03/13 07:43:41;;;;;;;;;;;;;;;15.33;50.72;95764.66;7394349;19;1846;-69
2024/03/13 07:46:10;;;;;;;;;;;;;;;15.62;51.09;95770.50;7395227;19;1029;-71
2024/03/13 07:48:42;;;;;;;;;;;;;;;15.64;50.42;95773.03;7394743;19;1147;-66
2024/03/13 07:51:11;;;;;;;;;;;;;;;15.53;50.98;95769.38;7394627;19;1033;-67
2024/03/13 07:53:39;;;;;;;;;;;;;;;15.10;48.42;95775.81;7395116;19;955;-67
2024/03/13 07:56:08;;;;;;;;;;;;;;;14.78;50.24;95777.06;7394842;19;1928;-66
2024/03/13 07:58:37;;;;;;;;;;;;;;;14.52;51.32;95779.63;7395137;19;1674;-70
2024/03/13 08:01:06;;;;;;;;;;;;;;;14.35;51.36;95772.84;7394638;19;1980;-69
2024/03/13 08:03:35;;;;;;;;;;;;;;;14.25;52.01;95772.59;7394279;19;1841;-68
2024/03/13 08:06:07;;;;;;;;;;;;;;;14.09;50.83;95774.53;7394852;19;1763;-67
2024/03/13 08:08:36;;;;;;;;;;;;;;;13.82;52.81;95775.34;7394566;19;965;-70
2024/03/13 08:11:04;;;;;;;;;;;;;;;13.87;53.35;95771.50;7392536;19;1259;-69
2024/03/13 08:13:33;;;;;;;;;;;;;;;14.03;54.27;95776.59;7393992;19;1080;-68
2024/03/13 08:16:02;;;;;;;;;;;;;;;14.22;52.49;95772.81;7393888;19;994;-68
2024/03/13 08:18:31;;;;;;;;;;;;;;;14.34;51.94;95770.31;7393847;19;1040;-69
2024/03/13 08:20:59;;;;;;;;;;;;;;;14.47;50.74;95776.44;7394522;19;1639;-69
2024/03/13 08:23:30;;;;;;;;;;;;;;;14.33;50.12;95776.53;7393887;19;1909;-67
2024/03/13 08:25:59;;;;;;;;;;;;;;;14.23;51.10;95776.25;7393587;19;1064;-67
2024/03/13 08:28:27;;;;;;;;;;;;;;;14.28;51.12;95776.81;7393609;19;1068;-69
2024/03/13 08:30:58;;;;;;;;;;;;;;;14.11;51.77;95775.25;7393850;19;1869;-68
2024/03/13 08:33:28;;;;;;;;;;;;;;;14.10;54.72;95777.06;7393531;19;1013;-69
2024/03/13 08:35:56;;;;;;;;;;;;;;;14.47;54.25;95775.59;7393380;19;1104;-65
2024/03/13 08:38:24;;;;;;;;;;;;;;;14.65;53.35;95781.44;7393652;19;2114;-69
2024/03/13 08:40:56;;;;;;;;;;;;;;;14.60;51.44;95787.00;7393684;19;969;-65
2024/03/13 08:43:24;;;;;;;;;;;;;;;14.66;50.83;95788.41;7393197;19;1025;-70
2024/03/13 08:45:53;;;;;;;;;;;;;;;14.62;51.62;95787.75;7393067;19;1096;-68
2024/03/13 08:48:23;;;;;;;;;;;;;;;14.55;51.17;95789.09;7392954;19;1159;-66
2024/03/13 08:50:57;;;;;;;;;;;;;;;14.43;52.17;95784.63;7392896;19;1057;-68
2024/03/13 08:53:25;;;;;;;;;;;;;;;14.22;51.12;95780.69;7399605;19;1053;-72
2024/03/13 08:55:58;;;;;;;;;;;;;;;14.06;51.69;95780.00;7400553;19;1953;-68
2024/03/13 08:58:26;;;;;;;;;;;;;;;13.94;51.88;95792.97;7400626;19;1060;-68
2024/03/13 09:00:55;;;;;;;;;;;;;;;14.00;52.31;95784.69;7400808;19;1790;-68
2024/03/13 09:03:23;;;;;;;;;;;;;;;14.03;53.96;95789.75;7400462;19;972;-67
2024/03/13 09:05:52;;;;;;;;;;;;;;;14.07;53.76;95784.28;7397309;19;1842;-69
2024/03/13 09:08:22;;;;;;;;;;;;;;;14.11;56.35;95788.41;7400220;19;1833;-71
2024/03/13 09:10:50;;;;;;;;;;;;;;;14.13;54.70;95789.16;7398034;19;1053;-72
2024/03/13 09:13:21;;;;;;;;;;;;;;;14.09;54.35;95788.50;7399834;19;1277;-70
2024/03/13 09:15:49;;;;;;;;;;;;;;;14.15;56.17;95788.13;7400193;19;1020;-65
2024/03/13 09:18:18;;;;;;;;;;;;;;;14.12;55.34;95795.38;7400143;19;1057;-70
2024/03/13 09:20:46;;;;;;;;;;;;;;;14.12;58.94;95795.38;7399949;19;1909;-67
2024/03/13 09:23:15;;;;;;;;;;;;;;;14.22;58.75;95788.59;7400125;19;1754;-69
2024/03/13 09:25:43;;;;;;;;;;;;;;;14.06;58.29;95788.69;7397544;19;1852;-68
2024/03/13 09:28:12;;;;;;;;;;;;;;;14.07;57.31;95787.78;7399514;19;1811;-66
2024/03/13 09:30:43;;;;;;;;;;;;;;;14.16;56.95;95791.59;7399428;19;1827;-67
2024/03/13 09:33:12;;;;;;;;;;;;;;;14.57;56.07;95800.34;7399530;19;961;-70
2024/03/13 09:35:40;;;;;;;;;;;;;;;14.82;51.22;95793.50;7399658;19;1813;-70
2024/03/13 09:38:10;;;;;;;;;;;;;;;15.22;54.07;95795.22;7399189;19;819;-67
2024/03/13 09:40:38;;;;;;;;;;;;;;;15.29;53.95;95795.63;7399197;19;1029;-71
2024/03/13 09:43:08;;;;;;;;;;;;;;;15.55;51.40;95790.34;7399098;19;1031;-69
2024/03/13 09:45:38;;;;;;;;;;;;;;;15.82;54.20;95794.63;7397356;19;1837;-66
2024/03/13 09:48:10;;;;;;;;;;;;;;;16.09;54.07;95788.34;7398455;19;1041;-71
2024/03/13 09:50:39;;;;;;;;;;;;;;;16.27;52.80;95796.72;7398362;19;1211;-70
2024/03/13 09:53:09;;;;;;;;;;;;;;;16.29;53.14;95797.44;7398326;19;1848;-65
2024/03/13 09:55:37;;;;;;;;;;;;;;;16.31;51.46;95797.31;7398258;19;1045;-67
2024/03/13 09:58:06;;;;;;;;;;;;;;;16.25;52.15;95801.25;7398635;19;985;-69
2024/03/13 10:00:34;;;;;;;;;;;;;;;16.45;52.88;95792.81;7398821;19;1660;-68
2024/03/13 10:03:06;;;;;;;;;;;;;;;16.66;51.43;95785.97;7396158;19;1800;-67
2024/03/13 10:05:37;;;;;;;;;;;;;;;16.60;52.12;95790.84;7396583;19;1853;-70
2024/03/13 10:08:06;;;;;;;;;;;;;;;16.50;50.48;95788.88;7398331;19;1004;-68
2024/03/13 10:10:36;;;;;;;;;;;;;;;16.59;49.95;95781.25;7396899;19;1140;-68
2024/03/13 10:13:05;;;;;;;;;;;;;;;16.73;52.53;95765.22;7397704;19;1068;-70
2024/03/13 10:15:33;;;;;;;;;;;;;;;16.63;54.23;95782.72;7398021;19;1035;-67
2024/03/13 10:18:05;;;;;;;;;;;;;;;16.65;51.16;95778.16;7397962;19;1047;-65
2024/03/13 10:20:41;;;;;;;;;;;;;;;16.79;48.83;95767.41;7397856;19;1016;-69
2024/03/13 10:23:13;;;;;;;;;;;;;;;16.97;51.18;95771.38;7397758;19;1225;-70
2024/03/13 10:25:40;;;;;;;;;;;;;;;16.87;47.91;95771.25;7395689;19;1842;-69
2024/03/13 10:28:11;;;;;;;;;;;;;;;16.54;47.25;95769.25;7397524;19;1051;-69
2024/03/13 10:30:39;;;;;;;;;;;;;;;16.09;48.74;95775.16;7397008;19;1092;-68
2024/03/13 10:33:09;;;;;;;;;;;;;;;15.74;49.81;95774.06;7397423;19;1030;-69
2024/03/13 10:35:39;;;;;;;;;;;;;;;15.55;49.27;95769.25;7396801;19;1080;-67
2024/03/13 10:38:10;;;;;;;;;;;;;;;15.57;49.65;95766.50;7396789;19;1116;-66
2024/03/13 10:40:42;;;;;;;;;;;;;;;15.50;50.91;95766.13;7396656;19;1057;-69
2024/03/13 10:43:11;;;;;;;;;;;;;;;15.27;51.94;95768.56;7396617;19;1029;-71
2024/03/13 10:45:42;;;;;;;;;;;;;;;14.93;51.11;95770.88;7395564;19;1894;-69
2024/03/13 10:48:13;;;;;;;;;;;;;;;14.70;53.27;95763.56;7396463;19;985;-67
2024/03/13 10:50:44;;;;;;;;;;;;;;;14.27;54.00;95765.44;7396406;19;946;-67
2024/03/13 10:53:12;;;;;;;;;;;;;;;14.17;56.04;95768.78;7396830;19;1015;-72
2024/03/13 10:55:44;;;;;;;;;;;;;;;14.29;56.28;95765.34;7396184;19;1014;-66
2024/03/13 10:58:21;;;;;;;;;;;;;;;14.19;57.95;95770.38;7396204;19;906;-69
2024/03/13 11:00:49;;;;;;;;;;;;;;;13.99;60.59;95775.13;7396000;19;1139;-69
2024/03/13 11:03:18;;;;;;;;;;;;;;;13.76;64.09;95773.97;7396546;19;1000;-69
2024/03/13 11:05:48;;;;;;;;;;;;;;;13.44;66.24;95772.38;7394745;19;1842;-71
2024/03/13 11:08:16;;;;;;;;;;;;;;;13.37;64.71;95768.44;7395830;19;1123;-65
2024/03/13 11:10:47;;;;;;;;;;;;;;;13.29;65.66;95765.44;7394887;19;1089;-67
2024/03/13 11:13:17;;;;;;;;;;;;;;;13.29;66.72;95760.16;7395772;19;1024;-69
2024/03/13 11:15:47;;;;;;;;;;;;;;;13.28;67.29;95764.59;7394667;19;1017;-69
2024/03/13 11:18:16;;;;;;;;;;;;;;;13.31;68.84;95761.78;7395589;19;1021;-67
2024/03/13 11:21:00;;;;;;;;;;;;;;;13.24;69.23;95761.31;7395412;19;1512;-67
2024/03/13 11:23:33;;;;;;;;;;;;;;;13.10;69.84;95751.63;7395385;19;1096;-70
2024/03/13 11:26:06;;;;;;;;;;;;;;;13.08;70.36;95742.16;7394590;19;1841;-70
2024/03/13 11:28:35;;;;;;;;;;;;;;;13.01;71.25;95741.72;7395282;19;1822;-68
2024/03/13 11:31:05;;;;;;;;;;;;;;;13.08;72.25;95736.91;7395683;19;1024;-71
2024/03/13 11:33:33;;;;;;;;;;;;;;;12.92;71.23;95752.75;7395158;19;1128;-70
2024/03/13 11:36:03;;;;;;;;;;;;;;;12.99;72.30;95739.19;7395153;19;1976;-68
2024/03/13 11:38:33;;;;;;;;;;;;;;;12.96;70.43;95749.88;7395074;19;1134;-70
2024/03/13 11:41:05;;;;;;;;;;;;;;;13.02;71.05;95741.63;7394896;19;1464;-68
2024/03/13 11:43:34;;;;;;;;;;;;;;;13.08;71.24;95731.66;7394895;19;972;-70
2024/03/13 11:46:03;;;;;;;;;;;;;;;13.06;71.84;95738.81;7394134;19;1845;-71
2024/03/13 11:48:32;;;;;;;;;;;;;;;13.10;71.00;95725.38;7394808;19;1097;-70
2024/03/13 11:51:10;;;;;;;;;;;;;;;13.15;70.94;95722.47;7394777;19;1813;-70
2024/03/13 11:53:40;;;;;;;;;;;;;;;13.21;69.55;95721.25;7394536;19;1096;-70
2024/03/13 11:56:13;;;;;;;;;;;;;;;13.23;69.53;95715.00;7394399;19;1061;-65
2024/03/13 11:58:43;;;;;;;;;;;;;;;13.28;68.09;95717.31;7394357;19;1037;-68
2024/03/13 12:01:13;;;;;;;;;;;;;;;13.35;67.71;95720.41;7394307;19;1119;-68
2024/03/13 12:03:43;;;;;;;;;;;;;;;13.43;68.15;95717.31;7394279;19;1036;-68
2024/03/13 12:06:26;;;;;;;;;;;;;;;13.42;68.68;95716.44;7392817;19;1838;-68
2024/03/13 12:08:55;;;;;;;;;;;;;;;13.39;70.26;95711.38;7394135;19;1041;-69
2024/03/13 12:11:27;;;;;;;;;;;;;;;13.42;71.26;95710.38;7392797;19;1077;-72
2024/03/13 12:13:56;;;;;;;;;;;;;;;13.39;72.39;95714.00;7393989;19;1405;-66
2024/03/13 12:16:25;;;;;;;;;;;;;;;13.39;70.54;95720.13;7394198;19;1809;-73
2024/03/13 12:18:53;;;;;;;;;;;;;;;13.43;71.85;95719.94;7394289;19;1043;-72
2024/03/13 12:21:23;;;;;;;;;;;;;;;13.25;71.81;95707.84;7393796;19;1112;-66
2024/03/13 12:23:52;;;;;;;;;;;;;;;13.16;69.01;95708.44;7394207;19;1024;-70
2024/03/13 12:26:20;;;;;;;;;;;;;;;13.14;70.29;95711.16;7392518;19;1866;-72
2024/03/13 12:28:54;;;;;;;;;;;;;;;13.11;71.48;95708.72;7401477;19;1789;-67
2024/03/13 12:31:22;;;;;;;;;;;;;;;13.09;71.31;95712.34;7401524;19;972;-68
2024/03/13 12:33:53;;;;;;;;;;;;;;;13.08;70.39;95708.91;7401271;19;1908;-67
2024/03/13 12:36:22;;;;;;;;;;;;;;;12.97;69.74;95704.28;7401239;19;1079;-69
2024/03/13 12:38:50;;;;;;;;;;;;;;;12.93;70.53;95707.19;7401138;19;1887;-67
2024/03/13 12:41:19;;;;;;;;;;;;;;;13.09;69.60;95712.34;7401286;19;965;-69
2024/03/13 12:43:48;;;;;;;;;;;;;;;13.15;69.20;95714.59;7401216;19;969;-68
2024/03/13 12:46:19;;;;;;;;;;;;;;;13.20;69.33;95709.91;7399289;19;1837;-72
2024/03/13 12:48:49;;;;;;;;;;;;;;;13.28;67.95;95714.69;7400559;19;1080;-66
2024/03/13 12:51:17;;;;;;;;;;;;;;;13.31;67.05;95716.28;7401009;19;960;-70
2024/03/13 12:53:45;;;;;;;;;;;;;;;13.31;67.48;95713.66;7400314;19;1029;-66
2024/03/13 12:56:15;;;;;;;;;;;;;;;13.31;65.29;95718.91;7400300;19;1942;-70
2024/03/13 12:58:43;;;;;;;;;;;;;;;13.33;62.76;95717.03;7400276;19;1197;-69
2024/03/13 13:01:12;;;;;;;;;;;;;;;13.38;63.49;95715.81;7400174;19;1041;-66
2024/03/13 13:03:43;;;;;;;;;;;;;;;13.38;64.34;95713.19;7400117;19;1029;-70
2024/03/13 13:06:14;;;;;;;;;;;;;;;13.43;64.34;95709.41;7398551;19;1849;-70
2024/03/13 13:08:42;;;;;;;;;;;;;;;13.41;63.35;95712.16;7400382;19;1043;-71
2024/03/13 13:11:14;;;;;;;;;;;;;;;13.46;64.70;95706.59;7397851;19;1180;-66
2024/03/13 13:13:42;;;;;;;;;;;;;;;13.63;63.18;95709.03;7399757;19;1009;-72
2024/03/13 13:16:12;;;;;;;;;;;;;;;13.73;60.29;95705.81;7399705;19;1033;-70
2024/03/13 13:18:46;;;;;;;;;;;;;;;13.73;59.91;95705.81;7399535;19;1119;-70
2024/03/13 13:21:15;;;;;;;;;;;;;;;13.81;60.69;95705.34;7399484;19;1076;-67
2024/03/13 13:23:43;;;;;;;;;;;;;;;13.87;59.47;95710.19;7399524;19;1108;-68
2024/03/13 13:26:15;;;;;;;;;;;;;;;13.87;58.75;95704.91;7398096;19;1937;-70
2024/03/13 13:28:44;;;;;;;;;;;;;;;13.97;59.94;95697.31;7399788;19;968;-69
2024/03/13 13:31:16;;;;;;;;;;;;;;;14.08;60.09;95697.44;7399500;19;2041;-68
2024/03/13 13:33:47;;;;;;;;;;;;;;;13.92;58.74;95702.84;7399154;19;1100;-72